Time;durP1;ratioP1;P1;durP2;ratioP2;P2;SDS_P1;SDS_P2;PMS_P1;PMS_P2;Temp;Humidity;BMP_temperature;BMP_pressure;BME280_temperature;BME280_humidity;BME280_pressure;Samples;Min_cycle;Max_cycle;Signal;HPM_P1;HPM_P2
2024/02/01 00:00:58;;;;;;;27.85;20.67;;;;;;;7.35;73.94;100345.47;5091035;28;20062;-49
2024/02/01 00:03:24;;;;;;;27.50;22.10;;;;;;;7.29;73.51;100341.63;5091293;28;20109;-49
2024/02/01 00:05:50;;;;;;;32.60;22.80;;;;;;;7.16;74.41;100336.69;5090927;28;20036;-49
2024/02/01 00:08:16;;;;;;;27.00;20.60;;;;;;;7.17;74.56;100329.69;5090934;28;20551;-49
2024/02/01 00:10:42;;;;;;;28.17;21.52;;;;;;;7.31;74.72;100334.47;5092274;28;20497;-49
2024/02/01 00:13:07;;;;;;;30.65;21.85;;;;;;;7.37;74.74;100327.88;5090796;28;20037;-49
2024/02/01 00:15:33;;;;;;;28.52;21.27;;;;;;;7.42;73.60;100330.06;5092136;28;20510;-49
2024/02/01 00:18:02;;;;;;;32.35;21.95;;;;;;;7.44;73.35;100325.53;5092133;28;20934;-49
2024/02/01 00:20:27;;;;;;;28.77;23.15;;;;;;;7.33;73.72;100326.50;5092118;28;20161;-49
2024/02/01 00:22:53;;;;;;;30.15;21.98;;;;;;;7.25;73.60;100329.81;5092039;28;20379;-49
2024/02/01 00:25:19;;;;;;;31.10;22.48;;;;;;;7.19;73.94;100323.34;5090625;28;20391;-49
2024/02/01 00:27:45;;;;;;;29.83;22.38;;;;;;;7.23;74.20;100321.28;5091975;28;20051;-49
2024/02/01 00:30:11;;;;;;;29.17;22.23;;;;;;;7.23;74.33;100320.47;5091847;28;20032;-49
2024/02/01 00:32:37;;;;;;;27.45;21.63;;;;;;;7.28;74.53;100319.06;5090536;28;20498;-49
2024/02/01 00:35:03;;;;;;;29.75;21.58;;;;;;;7.22;74.25;100314.41;5091915;28;20035;-49
2024/02/01 00:37:29;;;;;;;29.17;21.15;;;;;;;7.19;74.17;100306.88;5090555;28;20255;-49
2024/02/01 00:39:55;;;;;;;28.75;21.65;;;;;;;7.11;74.28;100301.50;5091921;28;20486;-49
2024/02/01 00:42:21;;;;;;;29.08;22.15;;;;;;;7.09;74.03;100316.50;5091807;28;20028;-49
2024/02/01 00:44:46;;;;;;;29.92;22.38;;;;;;;6.98;74.48;100313.06;5090292;28;20036;-49
2024/02/01 00:47:12;;;;;;;29.92;20.52;;;;;;;7.08;74.78;100317.44;5090729;28;20190;-49
2024/02/01 00:49:38;;;;;;;29.77;20.95;;;;;;;7.28;74.86;100311.25;5090862;28;20024;-49
2024/02/01 00:52:04;;;;;;;29.95;21.85;;;;;;;7.47;73.56;100302.56;5091636;28;20394;-49
2024/02/01 00:54:30;;;;;;;28.67;22.58;;;;;;;7.43;72.85;100300.38;5094339;28;20031;-49
2024/02/01 00:56:56;;;;;;;28.73;22.25;;;;;;;7.26;73.25;100297.50;5095922;28;20055;-49
2024/02/01 00:59:21;;;;;;;30.58;21.58;;;;;;;7.11;74.11;100289.28;5095879;28;20354;-50
2024/02/01 01:01:50;;;;;;;29.52;23.25;;;;;;;7.05;74.18;100283.78;5094586;28;20032;-50
2024/02/01 01:04:16;;;;;;;27.80;23.17;;;;;;;7.03;74.30;100289.13;5095860;28;20501;-50
2024/02/01 01:06:42;;;;;;;31.42;23.40;;;;;;;6.78;75.06;100286.13;5095735;28;20020;-49
2024/02/01 01:09:09;;;;;;;30.60;21.63;;;;;;;6.59;75.11;100288.69;5095703;28;20020;-49
2024/02/01 01:11:37;;;;;;;46.97;37.28;;;;;;;6.47;75.76;100292.38;5095640;28;20052;-49
2024/02/01 01:14:03;;;;;;;32.42;23.98;;;;;;;6.59;76.18;100306.94;5096056;28;20024;-49
2024/02/01 01:16:29;;;;;;;55.08;46.60;;;;;;;6.76;75.97;100315.91;5094227;28;20413;-49
2024/02/01 01:18:55;;;;;;;40.08;29.83;;;;;;;6.96;75.77;100309.75;5094359;28;20020;-49
2024/02/01 01:21:20;;;;;;;57.28;40.67;;;;;;;7.22;75.71;100311.78;5094158;28;20040;-49
2024/02/01 01:23:46;;;;;;;27.80;22.23;;;;;;;7.51;74.91;100305.72;5094172;28;20043;-49
2024/02/01 01:26:24;;;;;;;29.30;23.05;;;;;;;7.73;74.66;100307.19;5095342;28;20733;-49
2024/02/01 01:28:50;;;;;;;33.05;23.35;;;;;;;7.98;74.24;100308.34;5094130;28;20096;-49
2024/02/01 01:31:15;;;;;;;28.65;20.55;;;;;;;8.20;73.09;100313.19;5093838;28;20027;-49
2024/02/01 01:33:41;;;;;;;29.45;22.83;;;;;;;8.18;72.22;100306.47;5093929;28;20493;-49
2024/02/01 01:36:07;;;;;;;35.65;28.95;;;;;;;8.28;72.11;100311.66;5095165;28;20482;-50
2024/02/01 01:38:33;;;;;;;35.80;29.48;;;;;;;8.41;72.00;100296.50;5094125;28;20020;-49
2024/02/01 01:40:58;;;;;;;41.20;34.03;;;;;;;8.45;70.87;100295.22;5095138;28;20028;-49
2024/02/01 01:43:25;;;;;;;26.98;20.90;;;;;;;8.41;70.34;100299.13;5094354;28;20409;-50
2024/02/01 01:45:58;;;;;;;30.63;20.30;;;;;;;8.37;70.13;100284.63;5093853;28;20027;-49
2024/02/01 01:48:24;;;;;;;27.27;18.58;;;;;;;8.38;69.42;100292.31;5093821;28;20047;-49
2024/02/01 01:50:49;;;;;;;28.30;21.50;;;;;;;8.29;69.73;100288.00;5092367;28;20063;-50
2024/02/01 01:53:15;;;;;;;24.08;18.48;;;;;;;8.32;70.26;100286.88;5093608;28;20352;-49
2024/02/01 01:55:42;;;;;;;26.65;20.67;;;;;;;8.33;70.55;100304.19;5093670;28;20389;-49
2024/02/01 01:58:08;;;;;;;27.25;19.92;;;;;;;8.28;70.58;100311.66;5093599;28;20020;-49
2024/02/01 02:00:34;;;;;;;29.02;18.92;;;;;;;8.24;70.99;100308.50;5092247;28;20576;-49
2024/02/01 02:03:00;;;;;;;25.60;19.48;;;;;;;8.34;71.08;100311.91;5092255;28;20078;-49
2024/02/01 02:05:26;;;;;;;27.10;20.45;;;;;;;8.57;71.08;100332.47;5092091;28;20490;-49
2024/02/01 02:07:52;;;;;;;25.88;20.35;;;;;;;8.75;70.35;100320.25;5093445;28;20065;-49
2024/02/01 02:10:17;;;;;;;31.15;20.75;;;;;;;8.78;70.44;100324.38;5093400;28;20012;-49
2024/02/01 02:12:43;;;;;;;27.25;21.35;;;;;;;8.71;69.81;100315.44;5093303;28;20073;-49
2024/02/01 02:15:10;;;;;;;27.48;21.95;;;;;;;8.72;69.71;100312.69;5092252;28;20026;-49
2024/02/01 02:17:36;;;;;;;33.83;24.45;;;;;;;8.75;69.89;100315.00;5093334;28;20102;-50
2024/02/01 02:20:16;;;;;;;27.30;21.65;;;;;;;8.86;69.23;100311.34;5091859;28;20569;-49
2024/02/01 02:22:45;;;;;;;30.40;21.48;;;;;;;8.70;69.11;100311.19;5093228;28;20402;-49
2024/02/01 02:25:14;;;;;;;24.83;20.38;;;;;;;8.63;70.00;100307.50;5093066;28;20069;-49
2024/02/01 02:27:42;;;;;;;25.98;22.92;;;;;;;8.53;69.53;100310.19;5093043;28;20020;-49
2024/02/01 02:30:11;;;;;;;31.55;22.92;;;;;;;8.39;69.96;100312.31;5093000;28;20054;-49
2024/02/01 02:32:40;;;;;;;27.92;21.45;;;;;;;8.38;71.01;100300.19;5092900;28;20016;-49
2024/02/01 02:35:14;;;;;;;27.10;20.90;;;;;;;8.53;70.62;100303.16;5091631;28;20032;-49
2024/02/01 02:37:46;;;;;;;32.10;22.75;;;;;;;8.60;70.72;100308.63;5093041;28;20089;-49
2024/02/01 02:40:14;;;;;;;29.60;21.35;;;;;;;8.75;70.60;100315.00;5092922;28;20481;-49
2024/02/01 02:42:40;;;;;;;27.93;21.07;;;;;;;8.74;70.24;100320.41;5035364;28;1632744;-50
2024/02/01 02:45:06;;;;;;;31.23;20.85;;;;;;;8.75;70.58;100327.25;5093904;28;20387;-49
2024/02/01 02:47:32;;;;;;;27.23;20.25;;;;;;;8.87;70.78;100328.69;5092478;28;20109;-49
2024/02/01 02:49:58;;;;;;;28.35;20.73;;;;;;;9.00;70.76;100318.69;5092474;28;20020;-49
2024/02/01 02:52:23;;;;;;;26.73;19.92;;;;;;;9.19;70.39;100314.25;5092345;28;20119;-49
2024/02/01 02:54:49;;;;;;;26.17;20.00;;;;;;;9.26;70.08;100325.78;5093766;28;20024;-49
2024/02/01 02:57:15;;;;;;;26.00;20.48;;;;;;;9.31;69.88;100323.53;5093708;28;20027;-49
2024/02/01 02:59:41;;;;;;;23.50;18.88;;;;;;;9.43;69.94;100331.97;5093630;28;20398;-49
2024/02/01 03:02:07;;;;;;;20.75;17.30;;;;;;;9.62;69.66;100325.75;5092171;28;20032;-49
2024/02/01 03:04:36;;;;;;;23.52;20.65;;;;;;;9.67;68.89;100317.41;5093556;28;20047;-49
2024/02/01 03:07:07;;;;;;;21.85;16.77;;;;;;;9.68;68.70;100330.34;5093433;28;20027;-49
2024/02/01 03:09:32;;;;;;;21.67;16.52;;;;;;;9.70;68.35;100333.66;5093422;28;20031;-49
2024/02/01 03:11:58;;;;;;;21.73;17.67;;;;;;;9.87;68.08;100329.31;5093309;28;20028;-49
2024/02/01 03:14:24;;;;;;;21.75;18.67;;;;;;;10.02;67.83;100332.22;5091969;28;20017;-50
2024/02/01 03:16:50;;;;;;;33.47;21.35;;;;;;;10.08;67.10;100331.59;5092800;28;20035;-49
2024/02/01 03:19:17;;;;;;;26.33;19.75;;;;;;;10.11;66.93;100333.06;5091901;28;20024;-49
2024/02/01 03:21:42;;;;;;;28.60;19.48;;;;;;;10.15;66.70;100327.34;5093415;28;20020;-49
2024/02/01 03:24:08;;;;;;;23.20;18.17;;;;;;;10.17;66.59;100330.63;5093148;28;20032;-49
2024/02/01 03:26:34;;;;;;;22.02;17.90;;;;;;;10.23;66.41;100337.06;5093065;28;20555;-50
2024/02/01 03:29:01;;;;;;;24.75;18.98;;;;;;;10.24;65.75;100343.13;5091744;28;20032;-49
2024/02/01 03:31:33;;;;;;;22.45;17.02;;;;;;;10.24;65.79;100346.59;5108543;28;20114;-49
2024/02/01 03:34:05;;;;;;;22.70;18.52;;;;;;;10.26;65.44;100355.13;5092964;28;20024;-49
2024/02/01 03:36:34;;;;;;;30.15;19.02;;;;;;;10.24;65.01;100353.59;5092861;28;20032;-50
2024/02/01 03:39:00;;;;;;;25.95;20.23;;;;;;;10.01;64.88;100348.91;5092784;28;20497;-50
2024/02/01 03:41:26;;;;;;;29.95;20.35;;;;;;;9.90;65.05;100354.41;5074622;28;20028;-50
2024/02/01 03:43:52;;;;;;;24.70;18.58;;;;;;;9.90;65.62;100350.00;5091227;28;20051;-49
2024/02/01 03:46:18;;;;;;;27.25;20.95;;;;;;;10.00;65.68;100357.78;5092683;28;20028;-49
2024/02/01 03:48:44;;;;;;;28.92;20.30;;;;;;;10.07;65.66;100342.22;5092724;28;20124;-49
2024/02/01 03:51:11;;;;;;;32.25;20.73;;;;;;;10.15;65.21;100347.50;5091222;28;20035;-49
2024/02/01 03:53:37;;;;;;;28.98;21.75;;;;;;;10.13;65.29;100349.47;5092582;28;20047;-49
2024/02/01 03:56:04;;;;;;;26.02;19.63;;;;;;;10.11;65.09;100354.06;5092555;28;20074;-49
2024/02/01 03:58:32;;;;;;;26.05;19.67;;;;;;;10.14;65.26;100365.06;5092549;28;20028;-50
2024/02/01 04:01:01;;;;;;;34.45;18.60;;;;;;;10.17;65.17;100359.47;5092393;28;20404;-49
2024/02/01 04:03:27;;;;;;;35.42;21.88;;;;;;;10.23;64.68;100367.72;5091253;28;20028;-50
2024/02/01 04:05:53;;;;;;;31.38;19.15;;;;;;;10.18;64.78;100358.53;5091059;28;20036;-49
2024/02/01 04:08:20;;;;;;;37.00;20.48;;;;;;;10.18;65.09;100365.53;5090991;28;20028;-49
2024/02/01 04:10:46;;;;;;;32.92;20.55;;;;;;;10.20;64.93;100369.69;5092234;28;20016;-49
2024/02/01 04:13:12;;;;;;;27.85;21.13;;;;;;;10.25;64.77;100360.50;5092402;28;20085;-50
2024/02/01 04:15:38;;;;;;;26.08;19.77;;;;;;;10.18;64.29;100358.53;5090960;28;20452;-49
2024/02/01 04:18:06;;;;;;;29.33;19.20;;;;;;;9.97;64.47;100358.88;5092197;28;20028;-49
2024/02/01 04:20:31;;;;;;;32.78;24.83;;;;;;;9.79;64.82;100364.16;5090829;28;20027;-50
2024/02/01 04:22:57;;;;;;;29.92;23.33;;;;;;;9.54;65.77;100365.00;5090774;28;20131;-49
2024/02/01 04:25:24;;;;;;;28.02;22.23;;;;;;;9.57;66.73;100372.53;5090740;28;20093;-50
2024/02/01 04:27:50;;;;;;;28.42;23.70;;;;;;;9.64;66.74;100365.72;5090272;28;20032;-49
2024/02/01 04:30:18;;;;;;;30.73;22.88;;;;;;;9.68;66.79;100371.47;5090578;28;20032;-49
2024/02/01 04:32:45;;;;;;;27.70;21.67;;;;;;;9.64;66.63;100370.13;5090611;28;20490;-50
2024/02/01 04:35:12;;;;;;;31.20;22.42;;;;;;;9.67;66.81;100373.28;5091943;28;20059;-49
2024/02/01 04:37:39;;;;;;;29.88;25.15;;;;;;;9.77;66.99;100378.41;5092003;28;20047;-49
2024/02/01 04:40:07;;;;;;;28.65;21.30;;;;;;;9.83;66.63;100372.56;5091861;28;20103;-49
2024/02/01 04:42:35;;;;;;;33.97;20.98;;;;;;;9.76;66.33;100382.84;5091864;28;20114;-50
2024/02/01 04:45:04;;;;;;;29.15;22.55;;;;;;;9.64;66.62;100380.59;5091943;28;20024;-49
2024/02/01 04:47:33;;;;;;;31.33;22.50;;;;;;;9.55;67.48;100372.69;5091790;28;20028;-49
2024/02/01 04:49:59;;;;;;;31.48;21.13;;;;;;;9.56;67.29;100378.78;5091887;28;20023;-49
2024/02/01 04:52:26;;;;;;;32.40;22.38;;;;;;;9.51;67.50;100379.19;5091678;28;20024;-49
2024/02/01 04:54:53;;;;;;;28.95;22.38;;;;;;;9.55;67.68;100379.72;5091734;28;20031;-49
2024/02/01 04:57:18;;;;;;;26.23;20.35;;;;;;;9.60;67.71;100378.31;5091738;28;20024;-49
2024/02/01 04:59:45;;;;;;;29.30;21.70;;;;;;;9.67;67.34;100367.22;5090444;28;20153;-49
2024/02/01 05:02:14;;;;;;;27.65;20.77;;;;;;;9.54;67.71;100367.63;5091757;28;20097;-49
2024/02/01 05:04:40;;;;;;;29.92;20.33;;;;;;;9.55;68.23;100374.50;5091683;28;20070;-49
2024/02/01 05:07:06;;;;;;;29.33;20.48;;;;;;;9.75;68.11;100375.13;5090300;28;20036;-49
2024/02/01 05:09:33;;;;;;;29.48;21.63;;;;;;;9.65;67.45;100362.13;5090383;28;20028;-49
2024/02/01 05:11:59;;;;;;;27.00;20.83;;;;;;;9.59;67.83;100360.09;5091490;28;20107;-49
2024/02/01 05:14:25;;;;;;;35.92;31.65;;;;;;;9.55;68.07;100354.34;5091513;28;20028;-49
2024/02/01 05:16:51;;;;;;;37.13;20.98;;;;;;;9.63;68.63;100352.75;5091569;28;20020;-49
2024/02/01 05:19:18;;;;;;;35.63;20.85;;;;;;;9.79;68.69;100350.25;5091474;28;20016;-50
2024/02/01 05:21:44;;;;;;;31.15;19.40;;;;;;;9.93;68.39;100352.31;5090212;28;20204;-50
2024/02/01 05:24:13;;;;;;;36.00;22.63;;;;;;;9.85;67.95;100351.44;5090132;28;20039;-49
2024/02/01 05:26:40;;;;;;;29.92;22.58;;;;;;;9.89;68.20;100350.16;5090491;28;20036;-49
2024/02/01 05:29:09;;;;;;;28.80;22.10;;;;;;;9.83;68.19;100343.72;5073422;28;20494;-49
2024/02/01 05:31:38;;;;;;;35.28;22.70;;;;;;;9.70;68.68;100338.03;5091401;28;20068;-50
2024/02/01 05:34:08;;;;;;;27.10;21.13;;;;;;;9.76;69.00;100330.41;5091323;28;20107;-49
2024/02/01 05:36:33;;;;;;;38.95;24.40;;;;;;;9.80;68.92;100320.44;5090210;28;20016;-49
2024/02/01 05:38:59;;;;;;;34.05;22.52;;;;;;;9.75;68.94;100320.06;5090343;28;20127;-49
2024/02/01 05:41:25;;;;;;;33.17;22.45;;;;;;;9.69;69.12;100321.50;5095036;28;20024;-49
2024/02/01 05:43:50;;;;;;;28.23;19.05;;;;;;;9.86;69.66;100326.84;5098904;28;20063;-50
2024/02/01 05:46:16;;;;;;;31.25;21.20;;;;;;;10.08;69.39;100323.72;5093679;28;20123;-49
2024/02/01 05:48:45;;;;;;;41.97;24.27;;;;;;;10.23;68.87;100320.50;5094004;28;20028;-49
2024/02/01 05:51:11;;;;;;;39.47;21.40;;;;;;;10.33;68.35;100319.41;5093616;28;20027;-49
2024/02/01 05:53:38;;;;;;;33.15;19.80;;;;;;;10.45;68.60;100321.75;5094957;28;20501;-49
2024/02/01 05:56:04;;;;;;;34.15;20.33;;;;;;;10.65;68.22;100319.69;5094860;28;20542;-49
2024/02/01 05:58:29;;;;;;;27.48;20.02;;;;;;;10.76;67.46;100322.00;5093487;28;20556;-49
2024/02/01 06:00:57;;;;;;;34.90;23.58;;;;;;;10.81;67.07;100318.91;5093474;28;20024;-49
2024/02/01 06:03:23;;;;;;;29.60;20.88;;;;;;;10.85;66.57;100318.41;5094631;28;20060;-49
2024/02/01 06:05:49;;;;;;;27.17;20.20;;;;;;;10.77;65.55;100307.91;5093316;28;20024;-49
2024/02/01 06:08:15;;;;;;;33.08;21.10;;;;;;;10.57;65.95;100310.78;5094888;28;20482;-50
2024/02/01 06:10:41;;;;;;;43.30;28.77;;;;;;;10.53;66.10;100309.47;5093263;28;20032;-49
2024/02/01 06:13:07;;;;;;;38.00;25.27;;;;;;;10.52;66.32;100301.75;5094458;28;20055;-49
2024/02/01 06:15:36;;;;;;;32.13;24.70;;;;;;;10.54;66.07;100305.88;5093212;28;20411;-50
2024/02/01 06:18:02;;;;;;;32.95;22.05;;;;;;;10.41;65.30;100316.00;5093123;28;20024;-49
2024/02/01 06:20:28;;;;;;;38.42;31.40;;;;;;;10.14;66.05;100315.22;5094396;28;20027;-49
2024/02/01 06:22:53;;;;;;;26.35;20.08;;;;;;;10.11;66.76;100310.25;5094300;28;20020;-49
2024/02/01 06:25:19;;;;;;;33.05;21.08;;;;;;;10.20;66.83;100311.97;5094282;28;20384;-49
2024/02/01 06:27:47;;;;;;;34.13;20.50;;;;;;;10.34;66.65;100307.94;5092936;28;20036;-49
2024/02/01 06:30:13;;;;;;;31.00;22.33;;;;;;;10.52;66.49;100289.47;5094216;28;20024;-49
2024/02/01 06:32:42;;;;;;;37.15;20.65;;;;;;;10.66;66.18;100282.75;5092803;28;20028;-49
2024/02/01 06:35:20;;;;;;;30.40;21.90;;;;;;;10.66;65.92;100279.31;5094194;28;20020;-49
2024/02/01 06:38:04;;;;;;;41.33;22.63;;;;;;;10.64;65.72;100281.28;5094214;28;20020;-49
2024/02/01 06:40:48;;;;;;;50.20;21.52;;;;;;;10.39;65.46;100279.41;5094160;28;20101;-49
2024/02/01 06:43:27;;;;;;;28.75;21.52;;;;;;;10.39;66.48;100273.34;5093677;28;20035;-50
2024/02/01 06:46:22;;;;;;;33.25;22.15;;;;;;;10.37;66.18;100281.38;5094225;28;20409;-49
2024/02/01 06:49:01;;;;;;;50.30;21.98;;;;;;;10.30;66.57;100282.16;5093865;28;20023;-50
2024/02/01 06:51:32;;;;;;;52.55;39.50;;;;;;;10.25;66.70;100280.00;5091583;28;20028;-49
2024/02/01 06:54:05;;;;;;;39.22;26.13;;;;;;;9.99;66.69;100278.25;5093762;28;20028;-50
2024/02/01 06:56:52;;;;;;;39.42;23.30;;;;;;;9.62;66.74;100281.19;5093775;28;20028;-48
2024/02/01 06:59:31;;;;;;;33.45;23.98;;;;;;;9.34;67.85;100270.84;5092413;28;20035;-47
2024/02/01 07:02:06;;;;;;;41.38;24.40;;;;;;;9.13;68.14;100276.38;5093637;28;20040;-47
2024/02/01 07:04:42;;;;;;;53.42;31.63;;;;;;;9.02;68.76;100284.50;5093523;28;20103;-47
2024/02/01 07:07:27;;;;;;;42.88;26.73;;;;;;;9.03;69.40;100285.31;5093463;28;20059;-47
2024/02/01 07:10:06;;;;;;;43.10;29.27;;;;;;;9.00;69.68;100283.81;5093474;28;20089;-47
2024/02/01 07:12:53;;;;;;;36.70;24.42;;;;;;;8.98;69.45;100299.69;5093302;28;20056;-47
2024/02/01 07:17:48;;;;;;;44.63;24.05;;;;;;;9.01;70.01;100303.78;5093343;28;20106;-47
2024/02/01 07:20:23;;;;;;;37.83;23.55;;;;;;;9.04;70.30;100305.31;5093151;28;20020;-49
2024/02/01 07:25:47;;;;;;;50.13;25.05;;;;;;;9.12;70.61;100314.03;5070532;28;20506;-49
2024/02/01 07:58:21;;;;;;;35.90;25.20;;;;;;;9.84;68.33;100303.44;5070127;28;20035;-49
2024/02/01 08:00:51;;;;;;;33.90;24.10;;;;;;;9.76;68.21;100306.81;5069972;28;20032;-49
2024/02/01 08:08:37;;;;;;;31.83;24.10;;;;;;;10.02;68.86;100326.13;5092435;28;20096;-49
2024/02/01 08:11:04;;;;;;;37.50;23.77;;;;;;;10.13;68.65;100326.66;5091004;28;20048;-49
2024/02/01 08:13:30;;;;;;;36.95;24.08;;;;;;;10.30;68.59;100337.25;5090943;28;20032;-49
2024/02/01 08:15:57;;;;;;;42.90;23.85;;;;;;;10.50;68.12;100340.47;5092200;28;20024;-49
2024/02/01 08:18:25;;;;;;;42.13;29.45;;;;;;;10.53;67.48;100333.09;5092175;28;20486;-49
2024/02/01 08:20:52;;;;;;;39.05;24.27;;;;;;;10.66;67.32;100334.44;5092179;28;20016;-49
2024/02/01 08:23:21;;;;;;;39.90;22.48;;;;;;;10.89;67.52;100337.31;5090833;28;20028;-49
2024/02/01 08:25:48;;;;;;;46.58;24.92;;;;;;;11.13;66.75;100334.69;5092091;28;20060;-49
2024/02/01 08:28:15;;;;;;;56.90;26.88;;;;;;;11.28;65.99;100334.84;5090712;28;20020;-49
2024/02/01 08:30:45;;;;;;;43.63;24.70;;;;;;;11.16;65.17;100333.53;5091977;28;20032;-49
2024/02/01 08:33:16;;;;;;;43.25;24.20;;;;;;;11.09;65.64;100322.06;5090648;28;20446;-49
2024/02/01 08:35:43;;;;;;;48.88;29.33;;;;;;;11.08;65.52;100317.78;5092314;28;20443;-49
2024/02/01 08:38:12;;;;;;;38.05;27.85;;;;;;;11.06;65.67;100317.13;5091853;28;20043;-49
2024/02/01 08:40:41;;;;;;;41.30;25.02;;;;;;;11.12;66.06;100319.09;5091902;28;20105;-50
2024/02/01 08:43:12;;;;;;;38.33;26.10;;;;;;;11.24;65.47;100327.47;5091587;28;20024;-50
2024/02/01 08:45:44;;;;;;;46.88;24.50;;;;;;;11.39;65.07;100331.91;5090590;28;20039;-49
2024/02/01 08:48:10;;;;;;;32.03;24.55;;;;;;;11.42;64.97;100343.91;5091916;28;20028;-49
2024/02/01 08:50:48;;;;;;;30.75;23.60;;;;;;;11.48;65.06;100352.94;5091774;28;20027;-49
2024/02/01 08:53:15;;;;;;;40.25;23.23;;;;;;;11.62;64.80;100349.66;5091719;28;20024;-49
2024/02/01 08:55:42;;;;;;;60.60;24.92;;;;;;;11.48;64.54;100359.00;5091783;28;20508;-49
2024/02/01 08:58:08;;;;;;;34.38;21.98;;;;;;;11.52;64.54;100352.44;5090449;28;20470;-49
2024/02/01 09:00:36;;;;;;;27.20;21.95;;;;;;;11.72;64.32;100355.53;5091720;28;20016;-49
2024/02/01 09:03:03;;;;;;;29.60;21.05;;;;;;;11.73;63.57;100357.19;5091657;28;20036;-49
2024/02/01 09:05:43;;;;;;;39.80;23.85;;;;;;;11.40;63.33;100365.09;5091687;28;20508;-49
2024/02/01 09:08:35;;;;;;;35.10;24.10;;;;;;;10.89;63.97;100369.63;5090384;28;20038;-50
2024/02/01 09:11:17;;;;;;;36.05;22.58;;;;;;;10.57;65.52;100381.69;5091720;28;20032;-49
2024/02/01 09:13:45;;;;;;;28.55;23.48;;;;;;;10.85;66.02;100367.50;5091978;28;20033;-49
2024/02/01 09:16:13;;;;;;;36.42;24.67;;;;;;;10.88;65.73;100365.34;5095185;28;20095;-49
2024/02/01 09:18:39;;;;;;;33.72;24.92;;;;;;;10.83;65.39;100372.09;5095616;28;20077;-49
2024/02/01 09:21:05;;;;;;;39.50;25.23;;;;;;;10.75;65.82;100363.19;5094193;28;20028;-49
2024/02/01 09:23:31;;;;;;;40.50;24.58;;;;;;;10.82;65.95;100359.94;5094226;28;20035;-49
2024/02/01 09:25:56;;;;;;;38.40;24.80;;;;;;;10.88;66.04;100367.97;5095336;28;20028;-47
2024/02/01 09:28:22;;;;;;;47.63;26.10;;;;;;;11.03;65.90;100373.44;5095470;28;20119;-47
2024/02/01 09:30:50;;;;;;;40.10;23.63;;;;;;;11.16;65.76;100381.66;5094069;28;20028;-47
2024/02/01 09:33:18;;;;;;;41.42;24.55;;;;;;;11.36;65.72;100376.91;5095467;28;20474;-47
2024/02/01 09:35:45;;;;;;;40.53;25.65;;;;;;;11.52;64.83;100383.19;5093877;28;20032;-47
2024/02/01 09:38:12;;;;;;;55.80;26.48;;;;;;;11.55;64.45;100388.09;5095243;28;20504;-47
2024/02/01 09:40:44;;;;;;;38.95;24.55;;;;;;;11.53;64.82;100387.44;5093831;28;20076;-47
2024/02/01 09:43:20;;;;;;;41.63;25.48;;;;;;;11.60;64.65;100376.09;5094899;28;20064;-47
2024/02/01 09:45:47;;;;;;;52.75;25.85;;;;;;;11.73;64.77;100388.75;5095389;28;20032;-47
2024/02/01 09:48:17;;;;;;;47.10;27.55;;;;;;;11.76;63.95;100380.53;5095235;28;20024;-47
2024/02/01 09:50:55;;;;;;;49.33;33.28;;;;;;;11.60;64.14;100383.16;5094888;28;20062;-47
2024/02/01 09:53:23;;;;;;;45.85;26.75;;;;;;;11.52;64.34;100386.63;5094831;28;20024;-49
2024/02/01 09:55:50;;;;;;;42.65;27.25;;;;;;;11.65;64.51;100380.03;5094838;28;20020;-49
2024/02/01 09:58:18;;;;;;;48.53;35.78;;;;;;;11.74;64.06;100382.50;5095095;28;20429;-49
2024/02/01 10:00:44;;;;;;;45.75;26.33;;;;;;;11.92;64.27;100378.91;5093832;28;20020;-49
2024/02/01 10:03:13;;;;;;;42.47;27.75;;;;;;;12.12;63.73;100376.72;5094779;28;20032;-49
2024/02/01 10:05:41;;;;;;;37.20;29.70;;;;;;;12.25;63.26;100382.25;5094616;28;20024;-49
2024/02/01 10:08:17;;;;;;;44.55;33.10;;;;;;;12.23;62.37;100391.31;5094537;28;20024;-49
2024/02/01 10:10:45;;;;;;;54.17;39.50;;;;;;;12.21;62.75;100385.41;5094593;28;20396;-50
2024/02/01 10:13:13;;;;;;;106.75;88.57;;;;;;;12.36;62.99;100386.38;5094446;28;20028;-49
2024/02/01 10:15:49;;;;;;;108.18;72.65;;;;;;;12.70;63.10;100374.72;5093609;28;20394;-49
2024/02/01 10:18:22;;;;;;;;;;;;;;;13.17;62.56;100379.84;5094983;28;20425;-49
2024/02/01 10:20:49;;;;;;;80.78;66.97;;;;;;;13.20;61.41;100376.06;5094717;28;19912;-49
2024/02/01 10:23:16;;;;;;;59.63;44.25;;;;;;;13.21;61.05;100376.88;5094347;28;20101;-49
2024/02/01 10:25:47;;;;;;;72.75;50.35;;;;;;;13.13;60.69;100377.75;5093733;28;20069;-49
2024/02/01 10:28:19;;;;;;;106.82;72.95;;;;;;;13.11;60.80;100377.91;5094030;28;20016;-49
2024/02/01 10:30:47;;;;;;;49.35;39.55;;;;;;;13.07;60.63;100373.97;5094305;28;20040;-49
2024/02/01 10:33:26;;;;;;;55.90;39.50;;;;;;;13.14;61.30;100368.84;5094119;28;20074;-49
2024/02/01 10:35:53;;;;;;;41.97;29.63;;;;;;;13.29;61.19;100368.91;5094209;28;20029;-47
2024/02/01 10:38:26;;;;;;;60.90;38.97;;;;;;;13.57;60.75;100374.47;5094083;28;20031;-47
2024/02/01 10:41:11;;;;;;;52.70;30.17;;;;;;;13.82;60.35;100374.25;5094025;28;20020;-47
2024/02/01 10:43:41;;;;;;;55.30;34.58;;;;;;;14.09;59.71;100367.53;5093765;28;20047;-47
2024/02/01 10:46:31;;;;;;;248.52;219.65;;;;;;;14.24;58.90;100363.06;5093962;28;20028;-47
2024/02/01 10:49:02;;;;;;;125.05;99.32;;;;;;;14.38;58.47;100362.22;5092203;28;20067;-47
2024/02/01 10:51:29;;;;;;;64.15;46.67;;;;;;;14.19;58.13;100358.34;5093754;28;20429;-47
2024/02/01 10:53:57;;;;;;;47.83;34.78;;;;;;;13.90;58.29;100363.59;5092553;28;20031;-48
2024/02/01 10:56:23;;;;;;;75.55;65.30;;;;;;;13.70;59.30;100365.94;5093635;28;20024;-49
2024/02/01 10:58:53;;;;;;;67.05;54.58;;;;;;;13.84;59.79;100359.06;5093684;28;20077;-49
2024/02/01 11:01:24;;;;;;;59.08;40.60;;;;;;;14.13;59.67;100361.72;5093599;28;20103;-49
2024/02/01 11:03:55;;;;;;;45.25;30.50;;;;;;;14.35;58.81;100361.81;5093561;28;20623;-49
2024/02/01 11:06:25;;;;;;;54.33;31.00;;;;;;;14.40;58.53;100356.78;5092178;28;20115;-49
2024/02/01 11:08:53;;;;;;;52.72;32.38;;;;;;;14.39;58.21;100358.59;5093511;28;20054;-49
2024/02/01 11:11:32;;;;;;;48.63;34.58;;;;;;;14.17;58.28;100357.72;5093229;28;20030;-49
2024/02/01 11:14:10;;;;;;;58.00;32.50;;;;;;;13.99;58.73;100357.25;5093327;28;20024;-49
2024/02/01 11:16:42;;;;;;;46.80;31.15;;;;;;;13.90;58.89;100360.97;5092307;28;20024;-49
2024/02/01 11:19:19;;;;;;;46.63;32.53;;;;;;;13.71;59.34;100363.13;5093305;28;20034;-49
2024/02/01 11:22:03;;;;;;;46.00;28.35;;;;;;;13.65;60.06;100353.28;5091918;28;20028;-49
2024/02/01 11:24:35;;;;;;;40.65;27.55;;;;;;;13.74;59.98;100356.66;5093322;28;20099;-49
2024/02/01 11:27:20;;;;;;;33.80;26.92;;;;;;;13.68;60.02;100355.59;5093136;28;20052;-50
2024/02/01 11:29:48;;;;;;;36.15;26.42;;;;;;;13.58;60.08;100349.72;5093194;28;20028;-49
2024/02/01 11:32:19;;;;;;;42.75;25.85;;;;;;;13.50;60.48;100344.50;5092910;28;20032;-49
2024/02/01 11:34:54;;;;;;;36.70;27.10;;;;;;;13.46;60.55;100356.41;5093028;28;20024;-49
2024/02/01 11:37:21;;;;;;;35.72;25.75;;;;;;;13.38;60.78;100354.66;5092619;28;20031;-49
2024/02/01 11:39:53;;;;;;;41.85;25.70;;;;;;;13.24;60.75;100353.63;5092857;28;20028;-49
2024/02/01 11:42:24;;;;;;;32.80;25.33;;;;;;;13.11;61.40;100348.09;5091543;28;20024;-49
2024/02/01 11:44:50;;;;;;;43.63;25.85;;;;;;;13.05;61.74;100349.63;5092595;28;20032;-49
2024/02/01 11:47:18;;;;;;;38.80;25.85;;;;;;;13.12;61.96;100339.19;5092639;28;20035;-49
2024/02/01 11:49:49;;;;;;;34.17;27.38;;;;;;;13.15;62.08;100337.00;5092660;28;20548;-50
2024/02/01 11:52:46;;;;;;;37.85;26.63;;;;;;;13.19;62.90;100337.50;5092532;28;20032;-49
2024/02/01 11:55:14;;;;;;;34.28;25.20;;;;;;;13.26;63.22;100332.31;5092604;28;20103;-47
2024/02/01 11:57:48;;;;;;;44.10;25.63;;;;;;;13.31;63.19;100330.84;5092509;28;20062;-47
2024/02/01 12:00:20;;;;;;;40.38;26.83;;;;;;;13.35;63.23;100326.84;5092539;28;20024;-47